sensor_id;sensor_type;location;lat;lon;timestamp;pressure;altitude;pressure_sealevel;temperature;humidity
62051;BME280;48008;51.204;6.766;2023-01-29T00:02:10;102557.50;;;-1.49;86.45
62051;BME280;48008;51.204;6.766;2023-01-29T00:04:37;102561.81;;;-1.48;86.45
62051;BME280;48008;51.204;6.766;2023-01-29T00:07:04;102565.22;;;-1.44;85.64
62051;BME280;48008;51.204;6.766;2023-01-29T00:09:30;102558.31;;;-1.45;85.34
62051;BME280;48008;51.204;6.766;2023-01-29T00:11:57;102555.69;;;-1.45;85.77
62051;BME280;48008;51.204;6.766;2023-01-29T00:14:24;102555.72;;;-1.47;86.32
62051;BME280;48008;51.204;6.766;2023-01-29T00:16:52;102554.91;;;-1.49;86.56
62051;BME280;48008;51.204;6.766;2023-01-29T00:19:19;102549.03;;;-1.60;87.20
62051;BME280;48008;51.204;6.766;2023-01-29T00:21:46;102543.03;;;-1.64;87.35
62051;BME280;48008;51.204;6.766;2023-01-29T00:24:13;102539.47;;;-1.58;87.11
62051;BME280;48008;51.204;6.766;2023-01-29T00:26:39;102542.75;;;-1.50;86.10
62051;BME280;48008;51.204;6.766;2023-01-29T00:29:07;102542.09;;;-1.58;86.43
62051;BME280;48008;51.204;6.766;2023-01-29T00:31:34;102541.88;;;-1.49;86.24
62051;BME280;48008;51.204;6.766;2023-01-29T00:34:01;102540.97;;;-1.48;86.06
62051;BME280;48008;51.204;6.766;2023-01-29T00:36:28;102534.94;;;-1.48;85.45
62051;BME280;48008;51.204;6.766;2023-01-29T00:38:57;102534.06;;;-1.47;85.13
62051;BME280;48008;51.204;6.766;2023-01-29T00:41:27;102539.38;;;-1.53;85.75
62051;BME280;48008;51.204;6.766;2023-01-29T00:44:14;102542.03;;;-1.57;86.36
62051;BME280;48008;51.204;6.766;2023-01-29T00:47:02;102541.94;;;-1.52;86.35
62051;BME280;48008;51.204;6.766;2023-01-29T00:49:29;102540.28;;;-1.55;86.40
62051;BME280;48008;51.204;6.766;2023-01-29T00:51:57;102535.00;;;-1.53;86.29
62051;BME280;48008;51.204;6.766;2023-01-29T00:54:43;102528.13;;;-1.56;86.03
62051;BME280;48008;51.204;6.766;2023-01-29T00:57:10;102531.59;;;-1.55;86.06
62051;BME280;48008;51.204;6.766;2023-01-29T00:59:37;102534.09;;;-1.50;85.82
62051;BME280;48008;51.204;6.766;2023-01-29T01:02:03;102528.97;;;-1.55;85.46
62051;BME280;48008;51.204;6.766;2023-01-29T01:04:50;102538.50;;;-1.52;85.08
62051;BME280;48008;51.204;6.766;2023-01-29T01:07:17;102539.38;;;-1.53;84.83
62051;BME280;48008;51.204;6.766;2023-01-29T01:09:44;102545.53;;;-1.58;85.20
62051;BME280;48008;51.204;6.766;2023-01-29T01:12:31;102543.81;;;-1.59;85.29
62051;BME280;48008;51.204;6.766;2023-01-29T01:14:58;102545.63;;;-1.64;85.37
62051;BME280;48008;51.204;6.766;2023-01-29T01:17:24;102550.72;;;-1.56;85.80
62051;BME280;48008;51.204;6.766;2023-01-29T01:19:51;102548.09;;;-1.56;85.98
62051;BME280;48008;51.204;6.766;2023-01-29T01:22:18;102542.97;;;-1.61;86.57
62051;BME280;48008;51.204;6.766;2023-01-29T01:24:45;102545.72;;;-1.67;87.12
62051;BME280;48008;51.204;6.766;2023-01-29T01:27:12;102536.28;;;-1.71;87.56
62051;BME280;48008;51.204;6.766;2023-01-29T01:29:39;102534.53;;;-1.72;87.75
62051;BME280;48008;51.204;6.766;2023-01-29T01:32:06;102536.13;;;-1.65;87.94
62051;BME280;48008;51.204;6.766;2023-01-29T01:34:34;102530.94;;;-1.65;87.88
62051;BME280;48008;51.204;6.766;2023-01-29T01:37:01;102522.34;;;-1.70;88.13
62051;BME280;48008;51.204;6.766;2023-01-29T01:39:27;102516.59;;;-1.86;89.09
62051;BME280;48008;51.204;6.766;2023-01-29T01:41:55;102505.53;;;-1.97;90.11
62051;BME280;48008;51.204;6.766;2023-01-29T01:44:51;102495.75;;;-1.84;90.08
62051;BME280;48008;51.204;6.766;2023-01-29T01:47:25;102504.34;;;-1.81;89.73
62051;BME280;48008;51.204;6.766;2023-01-29T01:49:56;102494.88;;;-1.83;90.31
62051;BME280;48008;51.204;6.766;2023-01-29T01:52:29;102503.50;;;-1.81;90.35
62051;BME280;48008;51.204;6.766;2023-01-29T01:54:58;102498.25;;;-1.78;89.99
62051;BME280;48008;51.204;6.766;2023-01-29T01:57:26;102501.69;;;-1.76;89.92
62051;BME280;48008;51.204;6.766;2023-01-29T02:00:00;102511.13;;;-1.72;89.47
62051;BME280;48008;51.204;6.766;2023-01-29T02:02:49;102497.94;;;-1.64;88.71
62051;BME280;48008;51.204;6.766;2023-01-29T02:05:38;102512.72;;;-1.65;87.91
62051;BME280;48008;51.204;6.766;2023-01-29T02:08:35;102505.75;;;-1.64;88.38
62051;BME280;48008;51.204;6.766;2023-01-29T02:11:24;102505.94;;;-1.74;87.78
62051;BME280;48008;51.204;6.766;2023-01-29T02:13:51;102509.44;;;-1.75;88.45
62051;BME280;48008;51.204;6.766;2023-01-29T02:16:24;102503.56;;;-1.84;89.36
62051;BME280;48008;51.204;6.766;2023-01-29T02:18:51;102504.25;;;-1.75;88.72
62051;BME280;48008;51.204;6.766;2023-01-29T02:24:31;102511.25;;;-1.78;88.57
62051;BME280;48008;51.204;6.766;2023-01-29T02:27:15;102514.72;;;-1.79;88.83
62051;BME280;48008;51.204;6.766;2023-01-29T02:32:59;102527.75;;;-1.79;88.42
62051;BME280;48008;51.204;6.766;2023-01-29T02:35:34;102537.44;;;-1.87;88.50
62051;BME280;48008;51.204;6.766;2023-01-29T02:41:18;102546.94;;;-1.85;89.01
62051;BME280;48008;51.204;6.766;2023-01-29T02:43:54;102547.69;;;-1.78;89.01
62051;BME280;48008;51.204;6.766;2023-01-29T02:49:10;102557.00;;;-1.68;89.26
62051;BME280;48008;51.204;6.766;2023-01-29T02:51:50;102557.94;;;-1.70;89.10
62051;BME280;48008;51.204;6.766;2023-01-29T02:54:27;102555.91;;;-1.56;88.21
62051;BME280;48008;51.204;6.766;2023-01-29T02:56:58;102541.19;;;-1.59;88.56
62051;BME280;48008;51.204;6.766;2023-01-29T02:59:34;102543.84;;;-1.60;88.54
62051;BME280;48008;51.204;6.766;2023-01-29T03:02:09;102533.34;;;-1.56;88.51
62051;BME280;48008;51.204;6.766;2023-01-29T03:04:41;102530.75;;;-1.56;89.13
62051;BME280;48008;51.204;6.766;2023-01-29T03:07:17;102539.41;;;-1.57;88.82
62051;BME280;48008;51.204;6.766;2023-01-29T03:10:15;102529.13;;;-1.61;88.84
62051;BME280;48008;51.204;6.766;2023-01-29T03:12:45;102516.97;;;-1.62;88.49
62051;BME280;48008;51.204;6.766;2023-01-29T03:15:20;102519.56;;;-1.61;88.33
62051;BME280;48008;51.204;6.766;2023-01-29T03:18:14;102518.88;;;-1.69;88.63
62051;BME280;48008;51.204;6.766;2023-01-29T03:20:46;102524.88;;;-1.65;88.46
62051;BME280;48008;51.204;6.766;2023-01-29T03:23:29;102526.59;;;-1.66;88.46
62051;BME280;48008;51.204;6.766;2023-01-29T03:26:20;102523.16;;;-1.66;88.32
62051;BME280;48008;51.204;6.766;2023-01-29T03:29:08;102525.78;;;-1.68;87.67
62051;BME280;48008;51.204;6.766;2023-01-29T03:31:58;102533.66;;;-1.71;87.83
62051;BME280;48008;51.204;6.766;2023-01-29T03:34:39;102531.16;;;-1.77;87.92
62051;BME280;48008;51.204;6.766;2023-01-29T03:37:29;102532.13;;;-1.81;88.51
62051;BME280;48008;51.204;6.766;2023-01-29T03:40:04;102541.72;;;-1.83;88.32
62051;BME280;48008;51.204;6.766;2023-01-29T03:42:56;102536.59;;;-1.89;88.50
62051;BME280;48008;51.204;6.766;2023-01-29T03:46:04;102533.97;;;-1.88;88.85
62051;BME280;48008;51.204;6.766;2023-01-29T03:48:36;102541.00;;;-1.93;89.50
62051;BME280;48008;51.204;6.766;2023-01-29T03:51:20;102527.94;;;-1.88;89.68
62051;BME280;48008;51.204;6.766;2023-01-29T03:53:57;102528.97;;;-1.97;89.88
62051;BME280;48008;51.204;6.766;2023-01-29T03:57:12;102524.81;;;-2.07;90.33
62051;BME280;48008;51.204;6.766;2023-01-29T04:02:32;102520.53;;;-2.10;90.54
62051;BME280;48008;51.204;6.766;2023-01-29T04:05:12;102521.44;;;-2.11;90.63
62051;BME280;48008;51.204;6.766;2023-01-29T04:08:01;102523.13;;;-2.10;90.55
62051;BME280;48008;51.204;6.766;2023-01-29T04:10:32;102523.16;;;-2.12;90.44
62051;BME280;48008;51.204;6.766;2023-01-29T04:13:05;102509.31;;;-2.12;90.41
62051;BME280;48008;51.204;6.766;2023-01-29T04:15:37;102502.38;;;-2.13;90.58
62051;BME280;48008;51.204;6.766;2023-01-29T04:18:06;102510.97;;;-2.09;90.18
62051;BME280;48008;51.204;6.766;2023-01-29T04:20:46;102511.03;;;-2.11;90.15
62051;BME280;48008;51.204;6.766;2023-01-29T04:23:28;102501.53;;;-2.14;89.84
62051;BME280;48008;51.204;6.766;2023-01-29T04:26:14;102500.75;;;-2.19;89.92
62051;BME280;48008;51.204;6.766;2023-01-29T04:31:25;102478.28;;;-2.21;90.21
62051;BME280;48008;51.204;6.766;2023-01-29T04:39:56;102476.69;;;-2.30;90.53
62051;BME280;48008;51.204;6.766;2023-01-29T04:42:30;102475.78;;;-2.27;90.14
62051;BME280;48008;51.204;6.766;2023-01-29T04:48:02;102483.34;;;-2.15;89.96
62051;BME280;48008;51.204;6.766;2023-01-29T04:50:37;102484.31;;;-2.19;90.07
62051;BME280;48008;51.204;6.766;2023-01-29T04:53:27;102473.94;;;-2.22;89.85
62051;BME280;48008;51.204;6.766;2023-01-29T04:56:17;102478.28;;;-2.21;90.01
62051;BME280;48008;51.204;6.766;2023-01-29T04:58:51;102467.94;;;-2.24;90.32
62051;BME280;48008;51.204;6.766;2023-01-29T05:01:22;102461.06;;;-2.27;90.30
62051;BME280;48008;51.204;6.766;2023-01-29T05:03:53;102464.47;;;-2.25;90.42
62051;BME280;48008;51.204;6.766;2023-01-29T05:06:21;102463.56;;;-2.24;90.42
62051;BME280;48008;51.204;6.766;2023-01-29T05:08:52;102470.47;;;-2.21;90.13
62051;BME280;48008;51.204;6.766;2023-01-29T05:11:20;102463.56;;;-2.24;90.58
62051;BME280;48008;51.204;6.766;2023-01-29T05:13:47;102468.84;;;-2.25;90.25
62051;BME280;48008;51.204;6.766;2023-01-29T05:16:23;102466.94;;;-2.19;89.58
62051;BME280;48008;51.204;6.766;2023-01-29T05:18:51;102463.69;;;-2.28;90.44
62051;BME280;48008;51.204;6.766;2023-01-29T05:21:19;102459.16;;;-2.19;90.34
62051;BME280;48008;51.204;6.766;2023-01-29T05:24:09;102450.53;;;-2.21;90.09
62051;BME280;48008;51.204;6.766;2023-01-29T05:26:36;102447.13;;;-2.24;90.39
62051;BME280;48008;51.204;6.766;2023-01-29T05:29:23;102443.72;;;-2.28;90.61
62051;BME280;48008;51.204;6.766;2023-01-29T05:31:50;102453.19;;;-2.24;90.57
62051;BME280;48008;51.204;6.766;2023-01-29T05:34:17;102450.56;;;-2.24;90.63
62051;BME280;48008;51.204;6.766;2023-01-29T05:36:43;102453.31;;;-2.30;90.50
62051;BME280;48008;51.204;6.766;2023-01-29T05:39:10;102449.88;;;-2.32;90.77
62051;BME280;48008;51.204;6.766;2023-01-29T05:41:36;102446.16;;;-2.20;90.27
62051;BME280;48008;51.204;6.766;2023-01-29T05:44:03;102447.75;;;-2.12;90.47
62051;BME280;48008;51.204;6.766;2023-01-29T05:46:31;102443.44;;;-2.13;90.28
62051;BME280;48008;51.204;6.766;2023-01-29T05:48:58;102440.91;;;-2.16;90.43
62051;BME280;48008;51.204;6.766;2023-01-29T05:51:25;102437.44;;;-2.15;90.75
62051;BME280;48008;51.204;6.766;2023-01-29T05:53:52;102442.69;;;-2.18;91.02
62051;BME280;48008;51.204;6.766;2023-01-29T05:56:19;102445.84;;;-2.03;91.00
62051;BME280;48008;51.204;6.766;2023-01-29T05:58:45;102443.25;;;-2.03;91.26
62051;BME280;48008;51.204;6.766;2023-01-29T06:01:15;102445.75;;;-1.99;90.76
62051;BME280;48008;51.204;6.766;2023-01-29T06:03:43;102446.50;;;-1.94;90.52
62051;BME280;48008;51.204;6.766;2023-01-29T06:06:09;102453.53;;;-1.97;90.66
62051;BME280;48008;51.204;6.766;2023-01-29T06:08:36;102448.53;;;-2.08;90.68
62051;BME280;48008;51.204;6.766;2023-01-29T06:11:06;102463.97;;;-1.99;90.53
62051;BME280;48008;51.204;6.766;2023-01-29T06:13:34;102471.56;;;-1.89;91.03
62051;BME280;48008;51.204;6.766;2023-01-29T06:16:05;102470.75;;;-1.91;90.77
62051;BME280;48008;51.204;6.766;2023-01-29T06:18:32;102467.09;;;-1.83;90.52
62051;BME280;48008;51.204;6.766;2023-01-29T06:21:00;102482.56;;;-1.75;90.38
62051;BME280;48008;51.204;6.766;2023-01-29T06:23:28;102475.47;;;-1.67;90.05
62051;BME280;48008;51.204;6.766;2023-01-29T06:25:59;102484.84;;;-1.60;89.49
62051;BME280;48008;51.204;6.766;2023-01-29T06:28:26;102493.31;;;-1.50;89.52
62051;BME280;48008;51.204;6.766;2023-01-29T06:30:56;102496.75;;;-1.49;89.01
62051;BME280;48008;51.204;6.766;2023-01-29T06:33:24;102500.94;;;-1.42;89.02
62051;BME280;48008;51.204;6.766;2023-01-29T06:35:56;102505.22;;;-1.38;88.68
62051;BME280;48008;51.204;6.766;2023-01-29T06:38:24;102501.63;;;-1.34;88.77
62051;BME280;48008;51.204;6.766;2023-01-29T06:40:51;102502.66;;;-1.41;89.00
62051;BME280;48008;51.204;6.766;2023-01-29T06:43:18;102500.88;;;-1.39;88.92
62051;BME280;48008;51.204;6.766;2023-01-29T06:45:52;102506.94;;;-1.39;88.74
62051;BME280;48008;51.204;6.766;2023-01-29T06:48:19;102501.81;;;-1.42;88.55
62051;BME280;48008;51.204;6.766;2023-01-29T06:50:46;102499.09;;;-1.37;88.38
62051;BME280;48008;51.204;6.766;2023-01-29T06:53:12;102501.84;;;-1.43;88.85
62051;BME280;48008;51.204;6.766;2023-01-29T06:55:39;102493.41;;;-1.55;89.07
62051;BME280;48008;51.204;6.766;2023-01-29T06:58:08;102494.16;;;-1.49;89.34
62051;BME280;48008;51.204;6.766;2023-01-29T07:00:36;102482.03;;;-1.50;89.04
62051;BME280;48008;51.204;6.766;2023-01-29T07:03:03;102478.75;;;-1.60;89.23
62051;BME280;48008;51.204;6.766;2023-01-29T07:05:30;102466.63;;;-1.60;89.06
62051;BME280;48008;51.204;6.766;2023-01-29T07:07:57;102475.25;;;-1.58;89.13
62051;BME280;48008;51.204;6.766;2023-01-29T07:10:23;102479.75;;;-1.66;89.16
62051;BME280;48008;51.204;6.766;2023-01-29T07:12:50;102482.44;;;-1.69;89.68
62051;BME280;48008;51.204;6.766;2023-01-29T07:15:17;102474.72;;;-1.74;89.70
62051;BME280;48008;51.204;6.766;2023-01-29T07:18:02;102477.97;;;-1.64;89.49
62051;BME280;48008;51.204;6.766;2023-01-29T07:20:30;102490.06;;;-1.60;89.21
62051;BME280;48008;51.204;6.766;2023-01-29T07:22:57;102495.94;;;-1.51;88.76
62051;BME280;48008;51.204;6.766;2023-01-29T07:25:24;102496.84;;;-1.52;89.12
62051;BME280;48008;51.204;6.766;2023-01-29T07:27:51;102492.34;;;-1.46;88.95
62051;BME280;48008;51.204;6.766;2023-01-29T07:30:18;102491.22;;;-1.34;88.80
62051;BME280;48008;51.204;6.766;2023-01-29T07:32:45;102499.81;;;-1.30;88.72
62051;BME280;48008;51.204;6.766;2023-01-29T07:35:11;102486.78;;;-1.29;88.15
62051;BME280;48008;51.204;6.766;2023-01-29T07:37:38;102497.16;;;-1.68;89.26
62051;BME280;48008;51.204;6.766;2023-01-29T07:40:05;102493.03;;;-1.38;88.18
62051;BME280;48008;51.204;6.766;2023-01-29T07:42:37;102484.25;;;-1.33;88.18
62051;BME280;48008;51.204;6.766;2023-01-29T07:45:06;102470.25;;;-1.28;88.28
62051;BME280;48008;51.204;6.766;2023-01-29T07:47:33;102479.88;;;-1.31;88.72
62051;BME280;48008;51.204;6.766;2023-01-29T07:49:59;102478.97;;;-1.29;88.33
62051;BME280;48008;51.204;6.766;2023-01-29T07:52:29;102477.25;;;-1.30;87.95
62051;BME280;48008;51.204;6.766;2023-01-29T07:54:56;102484.00;;;-1.21;87.59
62051;BME280;48008;51.204;6.766;2023-01-29T07:57:23;102487.56;;;-1.25;87.92
62051;BME280;48008;51.204;6.766;2023-01-29T07:59:50;102481.13;;;-1.10;87.46
62051;BME280;48008;51.204;6.766;2023-01-29T08:02:16;102472.38;;;-1.08;87.53
62051;BME280;48008;51.204;6.766;2023-01-29T08:04:44;102457.69;;;-1.10;87.62
62051;BME280;48008;51.204;6.766;2023-01-29T08:07:11;102460.22;;;-1.07;87.83
62051;BME280;48008;51.204;6.766;2023-01-29T08:09:37;102475.56;;;-1.32;88.22
62051;BME280;48008;51.204;6.766;2023-01-29T08:12:04;102470.44;;;-1.36;88.21
62051;BME280;48008;51.204;6.766;2023-01-29T08:14:31;102469.34;;;-1.25;88.45
62051;BME280;48008;51.204;6.766;2023-01-29T08:16:58;102477.00;;;-1.19;88.55
62051;BME280;48008;51.204;6.766;2023-01-29T08:19:24;102478.00;;;-1.25;88.88
62051;BME280;48008;51.204;6.766;2023-01-29T08:21:51;102461.81;;;-1.39;88.73
62051;BME280;48008;51.204;6.766;2023-01-29T08:24:18;102462.47;;;-1.29;87.77
62051;BME280;48008;51.204;6.766;2023-01-29T08:26:44;102462.59;;;-1.34;88.41
62051;BME280;48008;51.204;6.766;2023-01-29T08:29:11;102466.53;;;-1.57;88.88
62051;BME280;48008;51.204;6.766;2023-01-29T08:31:38;102468.19;;;-1.51;88.69
62051;BME280;48008;51.204;6.766;2023-01-29T08:34:05;102466.88;;;-1.72;90.19
62051;BME280;48008;51.204;6.766;2023-01-29T08:36:31;102472.84;;;-1.67;90.03
62051;BME280;48008;51.204;6.766;2023-01-29T08:38:58;102476.78;;;-1.89;91.38
62051;BME280;48008;51.204;6.766;2023-01-29T08:41:24;102470.16;;;-1.64;90.62
62051;BME280;48008;51.204;6.766;2023-01-29T08:43:51;102468.81;;;-1.41;89.94
62051;BME280;48008;51.204;6.766;2023-01-29T08:46:18;102470.13;;;-1.22;89.05
62051;BME280;48008;51.204;6.766;2023-01-29T08:48:44;102472.78;;;-1.25;88.73
62051;BME280;48008;51.204;6.766;2023-01-29T08:51:11;102475.19;;;-1.16;88.99
62051;BME280;48008;51.204;6.766;2023-01-29T08:53:38;102469.03;;;-1.13;88.70
62051;BME280;48008;51.204;6.766;2023-01-29T08:56:04;102457.34;;;-0.97;88.28
62051;BME280;48008;51.204;6.766;2023-01-29T08:58:32;102470.75;;;-1.12;88.00
62051;BME280;48008;51.204;6.766;2023-01-29T09:01:07;102470.06;;;-1.20;88.56
62051;BME280;48008;51.204;6.766;2023-01-29T09:03:35;102474.88;;;-1.03;88.29
62051;BME280;48008;51.204;6.766;2023-01-29T09:06:02;102459.75;;;-0.87;87.87
62051;BME280;48008;51.204;6.766;2023-01-29T09:08:29;102462.00;;;-0.73;87.24
62051;BME280;48008;51.204;6.766;2023-01-29T09:10:58;102438.50;;;-0.72;86.52
62051;BME280;48008;51.204;6.766;2023-01-29T09:13:25;102440.22;;;-0.71;87.07
62051;BME280;48008;51.204;6.766;2023-01-29T09:15:52;102441.44;;;-0.86;86.73
62051;BME280;48008;51.204;6.766;2023-01-29T09:18:19;102443.78;;;-0.75;86.89
62051;BME280;48008;51.204;6.766;2023-01-29T09:20:47;102434.81;;;-0.63;86.99
62051;BME280;48008;51.204;6.766;2023-01-29T09:23:14;102439.34;;;-0.71;86.87
62051;BME280;48008;51.204;6.766;2023-01-29T09:25:41;102440.16;;;-0.69;86.74
62051;BME280;48008;51.204;6.766;2023-01-29T09:28:08;102440.00;;;-0.63;86.40
62051;BME280;48008;51.204;6.766;2023-01-29T09:30:35;102436.50;;;-0.62;86.29
62051;BME280;48008;51.204;6.766;2023-01-29T09:33:04;102431.00;;;-0.51;86.14
62051;BME280;48008;51.204;6.766;2023-01-29T09:35:31;102429.03;;;-0.42;86.30
62051;BME280;48008;51.204;6.766;2023-01-29T09:38:00;102433.09;;;-0.33;85.36
62051;BME280;48008;51.204;6.766;2023-01-29T09:40:40;102421.84;;;-0.35;85.45
62051;BME280;48008;51.204;6.766;2023-01-29T09:43:16;102419.66;;;-0.49;86.00
62051;BME280;48008;51.204;6.766;2023-01-29T09:45:52;102421.00;;;-0.35;85.47
62051;BME280;48008;51.204;6.766;2023-01-29T09:48:24;102405.94;;;-0.26;84.91
62051;BME280;48008;51.204;6.766;2023-01-29T09:50:52;102411.09;;;-0.23;85.22
62051;BME280;48008;51.204;6.766;2023-01-29T09:54:11;102405.53;;;-0.10;84.44
62051;BME280;48008;51.204;6.766;2023-01-29T09:56:22;102412.00;;;0.06;84.48
62051;BME280;48008;51.204;6.766;2023-01-29T09:58:56;102400.84;;;0.01;84.42
62051;BME280;48008;51.204;6.766;2023-01-29T10:01:49;102402.09;;;0.17;84.01
62051;BME280;48008;51.204;6.766;2023-01-29T10:10:45;102394.19;;;0.21;82.39
62051;BME280;48008;51.204;6.766;2023-01-29T10:13:30;102396.75;;;0.22;82.27
62051;BME280;48008;51.204;6.766;2023-01-29T10:16:25;102403.63;;;0.25;82.19
62051;BME280;48008;51.204;6.766;2023-01-29T10:22:03;102407.22;;;0.49;81.16
62051;BME280;48008;51.204;6.766;2023-01-29T10:24:37;102401.06;;;0.51;80.47
62051;BME280;48008;51.204;6.766;2023-01-29T10:27:13;102406.72;;;0.66;81.17
62051;BME280;48008;51.204;6.766;2023-01-29T10:29:42;102401.06;;;0.51;80.39
62051;BME280;48008;51.204;6.766;2023-01-29T10:32:15;102408.47;;;0.37;81.28
62051;BME280;48008;51.204;6.766;2023-01-29T10:34:49;102408.16;;;0.48;81.14
62051;BME280;48008;51.204;6.766;2023-01-29T10:37:21;102401.19;;;0.47;81.30
62051;BME280;48008;51.204;6.766;2023-01-29T10:39:50;102407.03;;;0.82;80.97
62051;BME280;48008;51.204;6.766;2023-01-29T10:42:25;102397.59;;;0.77;79.59
62051;BME280;48008;51.204;6.766;2023-01-29T10:45:21;102386.66;;;0.93;80.30
62051;BME280;48008;51.204;6.766;2023-01-29T10:48:30;102383.97;;;0.94;80.14
62051;BME280;48008;51.204;6.766;2023-01-29T10:51:06;102384.19;;;0.88;79.51
62051;BME280;48008;51.204;6.766;2023-01-29T11:02:20;102369.56;;;1.09;79.65
62051;BME280;48008;51.204;6.766;2023-01-29T11:04:48;102366.38;;;1.00;79.44
62051;BME280;48008;51.204;6.766;2023-01-29T11:07:17;102351.69;;;0.97;79.64
62051;BME280;48008;51.204;6.766;2023-01-29T11:09:55;102347.69;;;0.85;79.52
62051;BME280;48008;51.204;6.766;2023-01-29T11:12:26;102349.56;;;0.56;82.02
62051;BME280;48008;51.204;6.766;2023-01-29T11:15:06;102340.41;;;0.70;81.26
62051;BME280;48008;51.204;6.766;2023-01-29T11:18:01;102340.13;;;0.51;81.25
62051;BME280;48008;51.204;6.766;2023-01-29T11:20:29;102343.44;;;0.56;81.84
62051;BME280;48008;51.204;6.766;2023-01-29T11:22:57;102337.13;;;0.63;80.41
62051;BME280;48008;51.204;6.766;2023-01-29T11:25:24;102337.13;;;0.63;81.21
62051;BME280;48008;51.204;6.766;2023-01-29T11:27:53;102336.41;;;0.58;80.95
62051;BME280;48008;51.204;6.766;2023-01-29T11:30:31;102336.84;;;0.71;80.94
62051;BME280;48008;51.204;6.766;2023-01-29T11:33:18;102335.72;;;0.80;80.62
62051;BME280;48008;51.204;6.766;2023-01-29T11:35:46;102333.88;;;0.82;80.13
62051;BME280;48008;51.204;6.766;2023-01-29T11:38:28;102326.66;;;0.90;79.59
62051;BME280;48008;51.204;6.766;2023-01-29T11:41:05;102327.13;;;1.01;78.35
62051;BME280;48008;51.204;6.766;2023-01-29T11:43:32;102314.28;;;0.95;79.78
62051;BME280;48008;51.204;6.766;2023-01-29T11:46:02;102319.03;;;0.84;79.35
62051;BME280;48008;51.204;6.766;2023-01-29T11:48:50;102301.69;;;0.81;80.13
62051;BME280;48008;51.204;6.766;2023-01-29T11:51:26;102299.03;;;0.83;79.92
62051;BME280;48008;51.204;6.766;2023-01-29T11:53:57;102291.34;;;0.78;80.34
62051;BME280;48008;51.204;6.766;2023-01-29T11:56:31;102283.34;;;0.83;79.68
62051;BME280;48008;51.204;6.766;2023-01-29T11:59:00;102280.47;;;0.90;79.32
62051;BME280;48008;51.204;6.766;2023-01-29T12:01:34;102273.75;;;0.83;79.71
62051;BME280;48008;51.204;6.766;2023-01-29T12:04:09;102275.72;;;1.02;79.72
62051;BME280;48008;51.204;6.766;2023-01-29T12:06:41;102266.13;;;1.02;79.95
62051;BME280;48008;51.204;6.766;2023-01-29T12:09:14;102269.41;;;1.07;78.94
62051;BME280;48008;51.204;6.766;2023-01-29T12:11:42;102258.94;;;1.07;78.75
62051;BME280;48008;51.204;6.766;2023-01-29T12:14:30;102259.59;;;1.14;77.81
62051;BME280;48008;51.204;6.766;2023-01-29T12:17:18;102244.69;;;1.16;78.18
62051;BME280;48008;51.204;6.766;2023-01-29T12:19:57;102235.97;;;1.17;78.03
62051;BME280;48008;51.204;6.766;2023-01-29T12:22:39;102230.16;;;1.09;78.96
62051;BME280;48008;51.204;6.766;2023-01-29T12:28:27;102200.44;;;0.88;78.71
62051;BME280;48008;51.204;6.766;2023-01-29T12:31:35;102190.78;;;0.90;79.48
62051;BME280;48008;51.204;6.766;2023-01-29T12:34:13;102185.72;;;1.09;78.59
62051;BME280;48008;51.204;6.766;2023-01-29T12:36:54;102173.31;;;1.14;78.56
62051;BME280;48008;51.204;6.766;2023-01-29T12:39:24;102178.56;;;1.14;78.50
62051;BME280;48008;51.204;6.766;2023-01-29T12:42:01;102157.09;;;1.06;79.03
62051;BME280;48008;51.204;6.766;2023-01-29T12:44:37;102150.59;;;1.16;78.25
62051;BME280;48008;51.204;6.766;2023-01-29T12:47:14;102148.75;;;1.18;78.81
62051;BME280;48008;51.204;6.766;2023-01-29T12:49:48;102139.13;;;1.20;78.58
62051;BME280;48008;51.204;6.766;2023-01-29T12:52:22;102142.13;;;1.33;77.76
62051;BME280;48008;51.204;6.766;2023-01-29T12:55:00;102137.34;;;1.21;78.11
62051;BME280;48008;51.204;6.766;2023-01-29T12:57:56;102127.06;;;1.16;78.96
62051;BME280;48008;51.204;6.766;2023-01-29T13:00:28;102124.81;;;1.29;78.62
62051;BME280;48008;51.204;6.766;2023-01-29T13:03:07;102109.09;;;1.30;79.31
62051;BME280;48008;51.204;6.766;2023-01-29T13:05:40;102106.09;;;1.40;77.33
62051;BME280;48008;51.204;6.766;2023-01-29T13:08:22;102109.22;;;1.49;78.52
62051;BME280;48008;51.204;6.766;2023-01-29T13:10:52;102099.72;;;1.47;78.42
62051;BME280;48008;51.204;6.766;2023-01-29T13:13:43;102098.59;;;1.52;77.79
62051;BME280;48008;51.204;6.766;2023-01-29T13:16:12;102094.47;;;1.47;78.45
62051;BME280;48008;51.204;6.766;2023-01-29T13:19:03;102095.94;;;1.54;78.12
62051;BME280;48008;51.204;6.766;2023-01-29T13:21:35;102092.38;;;1.57;77.49
62051;BME280;48008;51.204;6.766;2023-01-29T13:24:11;102092.03;;;1.64;77.76
62051;BME280;48008;51.204;6.766;2023-01-29T13:26:40;102091.69;;;1.51;77.88
62051;BME280;48008;51.204;6.766;2023-01-29T13:29:27;102096.38;;;1.43;79.16
62051;BME280;48008;51.204;6.766;2023-01-29T13:31:57;102091.03;;;1.46;79.23
62051;BME280;48008;51.204;6.766;2023-01-29T13:34:29;102099.28;;;1.58;79.42
62051;BME280;48008;51.204;6.766;2023-01-29T13:37:00;102097.66;;;1.55;78.91
62051;BME280;48008;51.204;6.766;2023-01-29T13:39:30;102099.88;;;1.64;78.67
62051;BME280;48008;51.204;6.766;2023-01-29T13:42:00;102105.34;;;1.58;78.70
62051;BME280;48008;51.204;6.766;2023-01-29T13:44:38;102096.28;;;1.67;80.17
62051;BME280;48008;51.204;6.766;2023-01-29T13:47:07;102106.81;;;1.65;79.83
62051;BME280;48008;51.204;6.766;2023-01-29T13:49:39;102098.22;;;1.62;79.41
62051;BME280;48008;51.204;6.766;2023-01-29T13:52:33;102107.28;;;1.75;79.43
62051;BME280;48008;51.204;6.766;2023-01-29T13:55:38;102100.34;;;1.74;79.01
62051;BME280;48008;51.204;6.766;2023-01-29T13:57:53;102110.38;;;1.85;79.21
62051;BME280;48008;51.204;6.766;2023-01-29T14:08:42;102100.34;;;1.95;78.83
62051;BME280;48008;51.204;6.766;2023-01-29T14:11:33;102095.94;;;1.97;79.08
62051;BME280;48008;51.204;6.766;2023-01-29T14:14:01;102087.53;;;1.88;79.28
62051;BME280;48008;51.204;6.766;2023-01-29T14:16:33;102085.69;;;1.90;79.65
62051;BME280;48008;51.204;6.766;2023-01-29T14:19:01;102084.66;;;1.95;80.25
62051;BME280;48008;51.204;6.766;2023-01-29T14:21:31;102087.47;;;1.90;79.86